sensor_id;sensor_type;location;lat;lon;timestamp;P1;durP1;ratioP1;P2;durP2;ratioP2
8319;SDS011;4197;42.130;24.746;2023-03-31T00:00:55;6.67;;;4.67;;
8319;SDS011;4197;42.130;24.746;2023-03-31T00:03:26;4.97;;;4.33;;
8319;SDS011;4197;42.130;24.746;2023-03-31T00:05:55;5.70;;;4.50;;
8319;SDS011;4197;42.130;24.746;2023-03-31T00:08:24;8.77;;;4.60;;
8319;SDS011;4197;42.130;24.746;2023-03-31T00:10:57;7.03;;;4.40;;
8319;SDS011;4197;42.130;24.746;2023-03-31T00:13:28;6.07;;;4.40;;
8319;SDS011;4197;42.130;24.746;2023-03-31T00:15:58;6.03;;;4.30;;
8319;SDS011;4197;42.130;24.746;2023-03-31T00:18:27;8.63;;;4.87;;
8319;SDS011;4197;42.130;24.746;2023-03-31T00:21:05;6.40;;;5.20;;
8319;SDS011;4197;42.130;24.746;2023-03-31T00:23:34;7.53;;;4.70;;
8319;SDS011;4197;42.130;24.746;2023-03-31T00:26:03;6.43;;;4.90;;
8319;SDS011;4197;42.130;24.746;2023-03-31T00:28:33;7.13;;;4.67;;
8319;SDS011;4197;42.130;24.746;2023-03-31T00:31:02;9.20;;;5.27;;
8319;SDS011;4197;42.130;24.746;2023-03-31T00:33:30;7.13;;;4.93;;
8319;SDS011;4197;42.130;24.746;2023-03-31T00:35:58;10.93;;;4.90;;
8319;SDS011;4197;42.130;24.746;2023-03-31T00:38:27;10.00;;;5.00;;
8319;SDS011;4197;42.130;24.746;2023-03-31T00:40:56;6.87;;;4.87;;
8319;SDS011;4197;42.130;24.746;2023-03-31T00:43:29;8.90;;;4.87;;
8319;SDS011;4197;42.130;24.746;2023-03-31T00:46:01;6.27;;;4.37;;
8319;SDS011;4197;42.130;24.746;2023-03-31T00:48:35;8.13;;;4.47;;
8319;SDS011;4197;42.130;24.746;2023-03-31T00:51:05;9.80;;;4.53;;
8319;SDS011;4197;42.130;24.746;2023-03-31T00:53:34;7.63;;;4.97;;
8319;SDS011;4197;42.130;24.746;2023-03-31T00:56:05;6.03;;;4.50;;
8319;SDS011;4197;42.130;24.746;2023-03-31T00:58:36;7.13;;;4.60;;
8319;SDS011;4197;42.130;24.746;2023-03-31T01:01:11;7.70;;;4.70;;
8319;SDS011;4197;42.130;24.746;2023-03-31T01:03:43;7.13;;;4.93;;
8319;SDS011;4197;42.130;24.746;2023-03-31T01:06:14;7.23;;;4.77;;
8319;SDS011;4197;42.130;24.746;2023-03-31T01:08:47;7.23;;;4.70;;
8319;SDS011;4197;42.130;24.746;2023-03-31T01:11:18;7.83;;;5.07;;
8319;SDS011;4197;42.130;24.746;2023-03-31T01:13:50;12.30;;;6.10;;
8319;SDS011;4197;42.130;24.746;2023-03-31T01:16:23;7.80;;;5.00;;
8319;SDS011;4197;42.130;24.746;2023-03-31T01:18:51;8.43;;;5.00;;
8319;SDS011;4197;42.130;24.746;2023-03-31T01:27:41;5.57;;;4.97;;
8319;SDS011;4197;42.130;24.746;2023-03-31T01:30:26;8.57;;;5.77;;
8319;SDS011;4197;42.130;24.746;2023-03-31T01:33:35;12.70;;;5.13;;
8319;SDS011;4197;42.130;24.746;2023-03-31T01:36:33;9.33;;;5.03;;
8319;SDS011;4197;42.130;24.746;2023-03-31T01:39:24;10.10;;;5.03;;
8319;SDS011;4197;42.130;24.746;2023-03-31T01:42:09;8.27;;;4.53;;
8319;SDS011;4197;42.130;24.746;2023-03-31T01:44:42;13.23;;;6.07;;
8319;SDS011;4197;42.130;24.746;2023-03-31T01:47:18;11.20;;;5.80;;
8319;SDS011;4197;42.130;24.746;2023-03-31T01:49:52;12.07;;;7.10;;
8319;SDS011;4197;42.130;24.746;2023-03-31T01:52:30;11.30;;;7.20;;
8319;SDS011;4197;42.130;24.746;2023-03-31T01:55:06;12.50;;;6.97;;
8319;SDS011;4197;42.130;24.746;2023-03-31T01:57:39;15.83;;;7.00;;
8319;SDS011;4197;42.130;24.746;2023-03-31T02:00:12;10.27;;;6.50;;
8319;SDS011;4197;42.130;24.746;2023-03-31T02:02:44;12.53;;;6.37;;
8319;SDS011;4197;42.130;24.746;2023-03-31T02:05:17;11.30;;;6.80;;
8319;SDS011;4197;42.130;24.746;2023-03-31T02:07:50;10.70;;;6.10;;
8319;SDS011;4197;42.130;24.746;2023-03-31T02:10:23;9.67;;;5.80;;
8319;SDS011;4197;42.130;24.746;2023-03-31T02:12:53;8.43;;;5.53;;
8319;SDS011;4197;42.130;24.746;2023-03-31T02:15:24;12.43;;;7.20;;
8319;SDS011;4197;42.130;24.746;2023-03-31T02:17:57;16.33;;;6.13;;
8319;SDS011;4197;42.130;24.746;2023-03-31T02:20:31;14.10;;;5.53;;
8319;SDS011;4197;42.130;24.746;2023-03-31T02:23:02;12.03;;;5.00;;
8319;SDS011;4197;42.130;24.746;2023-03-31T02:25:34;9.43;;;5.27;;
8319;SDS011;4197;42.130;24.746;2023-03-31T02:28:12;10.43;;;5.13;;
8319;SDS011;4197;42.130;24.746;2023-03-31T02:30:47;12.17;;;5.20;;
8319;SDS011;4197;42.130;24.746;2023-03-31T02:33:23;7.97;;;5.23;;
8319;SDS011;4197;42.130;24.746;2023-03-31T02:35:51;9.70;;;5.27;;
8319;SDS011;4197;42.130;24.746;2023-03-31T02:38:20;7.00;;;5.33;;
8319;SDS011;4197;42.130;24.746;2023-03-31T02:40:52;9.93;;;5.97;;
8319;SDS011;4197;42.130;24.746;2023-03-31T02:43:20;8.90;;;6.23;;
8319;SDS011;4197;42.130;24.746;2023-03-31T02:45:49;9.37;;;6.00;;
8319;SDS011;4197;42.130;24.746;2023-03-31T02:48:19;10.00;;;6.63;;
8319;SDS011;4197;42.130;24.746;2023-03-31T02:53:58;9.93;;;6.30;;
8319;SDS011;4197;42.130;24.746;2023-03-31T02:56:49;10.63;;;6.63;;
8319;SDS011;4197;42.130;24.746;2023-03-31T02:59:31;7.57;;;6.40;;
8319;SDS011;4197;42.130;24.746;2023-03-31T03:02:11;16.90;;;5.93;;
8319;SDS011;4197;42.130;24.746;2023-03-31T03:04:52;12.23;;;6.43;;
8319;SDS011;4197;42.130;24.746;2023-03-31T03:07:35;9.37;;;5.87;;
8319;SDS011;4197;42.130;24.746;2023-03-31T03:10:11;11.00;;;5.87;;
8319;SDS011;4197;42.130;24.746;2023-03-31T03:12:50;10.80;;;6.73;;
8319;SDS011;4197;42.130;24.746;2023-03-31T03:15:25;13.43;;;6.30;;
8319;SDS011;4197;42.130;24.746;2023-03-31T03:17:58;9.43;;;6.13;;
8319;SDS011;4197;42.130;24.746;2023-03-31T03:20:26;15.17;;;6.70;;
8319;SDS011;4197;42.130;24.746;2023-03-31T03:22:54;12.63;;;6.90;;
8319;SDS011;4197;42.130;24.746;2023-03-31T03:25:23;20.43;;;6.83;;
8319;SDS011;4197;42.130;24.746;2023-03-31T03:27:53;17.50;;;7.27;;
8319;SDS011;4197;42.130;24.746;2023-03-31T03:30:21;10.53;;;6.57;;
8319;SDS011;4197;42.130;24.746;2023-03-31T03:32:50;11.07;;;6.77;;
8319;SDS011;4197;42.130;24.746;2023-03-31T03:35:20;16.13;;;7.20;;
8319;SDS011;4197;42.130;24.746;2023-03-31T03:37:48;8.80;;;6.27;;
8319;SDS011;4197;42.130;24.746;2023-03-31T03:40:16;11.80;;;8.47;;
8319;SDS011;4197;42.130;24.746;2023-03-31T03:42:46;10.47;;;6.93;;
8319;SDS011;4197;42.130;24.746;2023-03-31T03:45:15;13.80;;;7.30;;
8319;SDS011;4197;42.130;24.746;2023-03-31T03:47:44;16.33;;;7.03;;
8319;SDS011;4197;42.130;24.746;2023-03-31T03:50:14;14.50;;;7.23;;
8319;SDS011;4197;42.130;24.746;2023-03-31T03:53:01;15.23;;;7.87;;
8319;SDS011;4197;42.130;24.746;2023-03-31T03:55:31;11.00;;;7.23;;
8319;SDS011;4197;42.130;24.746;2023-03-31T03:57:59;13.80;;;6.87;;
8319;SDS011;4197;42.130;24.746;2023-03-31T04:00:29;12.70;;;7.07;;
8319;SDS011;4197;42.130;24.746;2023-03-31T04:02:57;14.67;;;8.33;;
8319;SDS011;4197;42.130;24.746;2023-03-31T04:05:27;16.20;;;7.60;;
8319;SDS011;4197;42.130;24.746;2023-03-31T04:07:55;13.13;;;7.50;;
8319;SDS011;4197;42.130;24.746;2023-03-31T04:10:23;11.30;;;7.27;;
8319;SDS011;4197;42.130;24.746;2023-03-31T04:12:55;19.93;;;7.47;;
8319;SDS011;4197;42.130;24.746;2023-03-31T04:15:25;19.37;;;8.70;;
8319;SDS011;4197;42.130;24.746;2023-03-31T04:17:57;17.40;;;8.53;;
8319;SDS011;4197;42.130;24.746;2023-03-31T04:20:26;17.90;;;8.30;;
8319;SDS011;4197;42.130;24.746;2023-03-31T04:22:56;16.50;;;7.90;;
8319;SDS011;4197;42.130;24.746;2023-03-31T04:25:24;15.60;;;7.93;;
8319;SDS011;4197;42.130;24.746;2023-03-31T04:27:56;19.93;;;9.20;;
8319;SDS011;4197;42.130;24.746;2023-03-31T04:30:25;17.30;;;9.20;;
8319;SDS011;4197;42.130;24.746;2023-03-31T04:32:59;16.67;;;8.67;;
8319;SDS011;4197;42.130;24.746;2023-03-31T04:35:29;18.93;;;9.20;;
8319;SDS011;4197;42.130;24.746;2023-03-31T04:38:15;15.53;;;9.30;;
8319;SDS011;4197;42.130;24.746;2023-03-31T04:40:46;13.23;;;8.87;;
8319;SDS011;4197;42.130;24.746;2023-03-31T04:43:15;16.90;;;9.37;;
8319;SDS011;4197;42.130;24.746;2023-03-31T04:45:44;19.87;;;9.67;;
8319;SDS011;4197;42.130;24.746;2023-03-31T04:48:14;21.77;;;9.73;;
8319;SDS011;4197;42.130;24.746;2023-03-31T04:50:43;19.10;;;8.93;;
8319;SDS011;4197;42.130;24.746;2023-03-31T04:53:14;18.10;;;8.90;;
8319;SDS011;4197;42.130;24.746;2023-03-31T04:55:43;12.63;;;8.70;;
8319;SDS011;4197;42.130;24.746;2023-03-31T04:58:11;17.23;;;8.30;;
8319;SDS011;4197;42.130;24.746;2023-03-31T05:00:39;35.67;;;9.77;;
8319;SDS011;4197;42.130;24.746;2023-03-31T05:03:08;22.10;;;9.60;;
8319;SDS011;4197;42.130;24.746;2023-03-31T05:05:38;23.87;;;9.77;;
8319;SDS011;4197;42.130;24.746;2023-03-31T05:08:08;18.97;;;10.97;;
8319;SDS011;4197;42.130;24.746;2023-03-31T05:10:37;22.70;;;11.50;;
8319;SDS011;4197;42.130;24.746;2023-03-31T05:13:07;21.80;;;13.30;;
8319;SDS011;4197;42.130;24.746;2023-03-31T05:15:36;22.73;;;9.47;;
8319;SDS011;4197;42.130;24.746;2023-03-31T05:18:05;22.00;;;10.97;;
8319;SDS011;4197;42.130;24.746;2023-03-31T05:20:33;19.70;;;10.57;;
8319;SDS011;4197;42.130;24.746;2023-03-31T05:23:03;24.20;;;10.00;;
8319;SDS011;4197;42.130;24.746;2023-03-31T05:25:32;18.13;;;8.17;;
8319;SDS011;4197;42.130;24.746;2023-03-31T05:28:03;21.50;;;9.40;;
8319;SDS011;4197;42.130;24.746;2023-03-31T05:30:35;12.93;;;7.87;;
8319;SDS011;4197;42.130;24.746;2023-03-31T05:33:03;17.00;;;7.97;;
8319;SDS011;4197;42.130;24.746;2023-03-31T05:35:32;9.40;;;6.30;;
8319;SDS011;4197;42.130;24.746;2023-03-31T05:38:00;16.97;;;6.53;;
8319;SDS011;4197;42.130;24.746;2023-03-31T05:40:30;12.20;;;7.53;;
8319;SDS011;4197;42.130;24.746;2023-03-31T05:42:58;10.50;;;6.90;;
8319;SDS011;4197;42.130;24.746;2023-03-31T05:45:26;11.47;;;7.53;;
8319;SDS011;4197;42.130;24.746;2023-03-31T05:47:55;15.83;;;7.90;;
8319;SDS011;4197;42.130;24.746;2023-03-31T05:50:23;13.57;;;7.33;;
8319;SDS011;4197;42.130;24.746;2023-03-31T05:52:51;16.80;;;7.17;;
8319;SDS011;4197;42.130;24.746;2023-03-31T05:55:20;11.53;;;6.63;;
8319;SDS011;4197;42.130;24.746;2023-03-31T05:57:49;25.10;;;8.17;;
8319;SDS011;4197;42.130;24.746;2023-03-31T06:00:18;19.53;;;8.80;;
8319;SDS011;4197;42.130;24.746;2023-03-31T06:02:47;12.33;;;7.13;;
8319;SDS011;4197;42.130;24.746;2023-03-31T06:05:15;16.93;;;7.20;;
8319;SDS011;4197;42.130;24.746;2023-03-31T06:07:44;33.13;;;8.70;;
8319;SDS011;4197;42.130;24.746;2023-03-31T06:10:12;17.23;;;8.27;;
8319;SDS011;4197;42.130;24.746;2023-03-31T06:12:40;18.17;;;8.90;;
8319;SDS011;4197;42.130;24.746;2023-03-31T06:15:11;16.73;;;8.57;;
8319;SDS011;4197;42.130;24.746;2023-03-31T06:17:39;26.60;;;9.50;;
8319;SDS011;4197;42.130;24.746;2023-03-31T06:20:08;20.30;;;10.17;;
8319;SDS011;4197;42.130;24.746;2023-03-31T06:22:52;27.63;;;11.23;;
8319;SDS011;4197;42.130;24.746;2023-03-31T06:25:22;28.50;;;11.47;;
8319;SDS011;4197;42.130;24.746;2023-03-31T06:27:50;27.90;;;11.70;;
8319;SDS011;4197;42.130;24.746;2023-03-31T06:30:20;27.90;;;11.47;;
8319;SDS011;4197;42.130;24.746;2023-03-31T06:32:48;31.27;;;12.77;;
8319;SDS011;4197;42.130;24.746;2023-03-31T06:35:17;23.50;;;13.30;;
8319;SDS011;4197;42.130;24.746;2023-03-31T06:37:45;23.53;;;12.53;;
8319;SDS011;4197;42.130;24.746;2023-03-31T06:40:14;23.77;;;14.03;;
8319;SDS011;4197;42.130;24.746;2023-03-31T06:42:43;28.00;;;12.80;;
8319;SDS011;4197;42.130;24.746;2023-03-31T06:45:11;29.80;;;13.53;;
8319;SDS011;4197;42.130;24.746;2023-03-31T06:47:41;30.73;;;17.37;;
8319;SDS011;4197;42.130;24.746;2023-03-31T06:50:09;33.30;;;15.43;;
8319;SDS011;4197;42.130;24.746;2023-03-31T06:52:38;46.13;;;15.33;;
8319;SDS011;4197;42.130;24.746;2023-03-31T06:55:07;29.33;;;13.60;;
8319;SDS011;4197;42.130;24.746;2023-03-31T06:57:36;23.53;;;11.97;;
8319;SDS011;4197;42.130;24.746;2023-03-31T07:00:05;21.43;;;10.30;;
8319;SDS011;4197;42.130;24.746;2023-03-31T07:02:34;25.67;;;11.50;;
8319;SDS011;4197;42.130;24.746;2023-03-31T07:05:05;22.47;;;12.80;;
8319;SDS011;4197;42.130;24.746;2023-03-31T07:07:34;19.97;;;11.17;;
8319;SDS011;4197;42.130;24.746;2023-03-31T07:10:02;17.80;;;9.93;;
8319;SDS011;4197;42.130;24.746;2023-03-31T07:12:32;25.03;;;11.77;;
8319;SDS011;4197;42.130;24.746;2023-03-31T07:15:01;25.27;;;9.80;;
8319;SDS011;4197;42.130;24.746;2023-03-31T07:17:46;18.40;;;9.73;;
8319;SDS011;4197;42.130;24.746;2023-03-31T07:20:18;19.17;;;10.23;;
8319;SDS011;4197;42.130;24.746;2023-03-31T07:22:47;14.60;;;9.80;;
8319;SDS011;4197;42.130;24.746;2023-03-31T07:25:16;19.63;;;10.90;;
8319;SDS011;4197;42.130;24.746;2023-03-31T07:27:45;22.13;;;9.73;;
8319;SDS011;4197;42.130;24.746;2023-03-31T07:30:14;23.10;;;9.83;;
8319;SDS011;4197;42.130;24.746;2023-03-31T07:32:45;18.90;;;10.80;;
8319;SDS011;4197;42.130;24.746;2023-03-31T07:35:15;44.33;;;11.70;;
8319;SDS011;4197;42.130;24.746;2023-03-31T07:37:47;20.50;;;10.87;;
8319;SDS011;4197;42.130;24.746;2023-03-31T07:40:17;25.30;;;11.20;;
8319;SDS011;4197;42.130;24.746;2023-03-31T07:42:47;18.37;;;10.20;;
8319;SDS011;4197;42.130;24.746;2023-03-31T07:45:18;27.20;;;11.97;;
8319;SDS011;4197;42.130;24.746;2023-03-31T07:47:50;20.87;;;12.03;;
8319;SDS011;4197;42.130;24.746;2023-03-31T07:50:19;20.57;;;12.20;;
8319;SDS011;4197;42.130;24.746;2023-03-31T07:52:50;25.93;;;12.60;;
8319;SDS011;4197;42.130;24.746;2023-03-31T07:55:19;27.77;;;12.90;;
8319;SDS011;4197;42.130;24.746;2023-03-31T07:57:49;38.00;;;17.63;;
8319;SDS011;4197;42.130;24.746;2023-03-31T08:00:18;35.17;;;13.13;;
8319;SDS011;4197;42.130;24.746;2023-03-31T08:02:47;19.73;;;10.87;;
8319;SDS011;4197;42.130;24.746;2023-03-31T08:05:16;23.63;;;11.67;;
8319;SDS011;4197;42.130;24.746;2023-03-31T08:07:47;24.57;;;11.00;;
8319;SDS011;4197;42.130;24.746;2023-03-31T08:10:18;21.20;;;11.93;;
8319;SDS011;4197;42.130;24.746;2023-03-31T08:12:48;23.17;;;12.07;;
8319;SDS011;4197;42.130;24.746;2023-03-31T08:15:18;25.00;;;11.67;;
8319;SDS011;4197;42.130;24.746;2023-03-31T08:17:47;25.77;;;11.67;;
8319;SDS011;4197;42.130;24.746;2023-03-31T08:20:16;27.70;;;11.07;;
8319;SDS011;4197;42.130;24.746;2023-03-31T08:22:44;25.13;;;11.90;;
8319;SDS011;4197;42.130;24.746;2023-03-31T08:25:13;19.53;;;11.33;;
8319;SDS011;4197;42.130;24.746;2023-03-31T08:27:43;19.47;;;10.10;;
8319;SDS011;4197;42.130;24.746;2023-03-31T08:30:14;26.20;;;10.60;;
8319;SDS011;4197;42.130;24.746;2023-03-31T08:32:43;21.67;;;10.90;;
8319;SDS011;4197;42.130;24.746;2023-03-31T08:35:11;67.83;;;13.27;;
8319;SDS011;4197;42.130;24.746;2023-03-31T08:37:41;32.17;;;11.37;;
8319;SDS011;4197;42.130;24.746;2023-03-31T08:40:10;22.33;;;11.10;;
8319;SDS011;4197;42.130;24.746;2023-03-31T08:42:45;27.83;;;11.73;;
8319;SDS011;4197;42.130;24.746;2023-03-31T08:45:17;20.73;;;11.37;;
8319;SDS011;4197;42.130;24.746;2023-03-31T08:47:50;28.93;;;11.60;;
8319;SDS011;4197;42.130;24.746;2023-03-31T08:50:24;21.83;;;11.63;;
8319;SDS011;4197;42.130;24.746;2023-03-31T08:52:58;23.07;;;11.90;;
8319;SDS011;4197;42.130;24.746;2023-03-31T08:55:33;20.73;;;11.03;;
8319;SDS011;4197;42.130;24.746;2023-03-31T08:58:12;34.00;;;11.57;;
8319;SDS011;4197;42.130;24.746;2023-03-31T09:00:49;30.03;;;11.33;;
8319;SDS011;4197;42.130;24.746;2023-03-31T09:03:25;16.03;;;9.93;;
8319;SDS011;4197;42.130;24.746;2023-03-31T09:06:00;16.52;;;7.43;;
8319;SDS011;4197;42.130;24.746;2023-03-31T09:08:35;10.13;;;5.90;;
8319;SDS011;4197;42.130;24.746;2023-03-31T09:11:12;13.00;;;6.50;;
8319;SDS011;4197;42.130;24.746;2023-03-31T09:16:47;15.20;;;6.30;;
8319;SDS011;4197;42.130;24.746;2023-03-31T09:19:22;9.48;;;5.70;;
8319;SDS011;4197;42.130;24.746;2023-03-31T09:22:00;10.68;;;3.85;;
8319;SDS011;4197;42.130;24.746;2023-03-31T09:24:31;10.75;;;3.35;;
8319;SDS011;4197;42.130;24.746;2023-03-31T09:27:06;10.48;;;3.30;;
8319;SDS011;4197;42.130;24.746;2023-03-31T09:29:40;6.65;;;4.13;;
8319;SDS011;4197;42.130;24.746;2023-03-31T09:32:13;6.45;;;3.72;;
8319;SDS011;4197;42.130;24.746;2023-03-31T09:34:43;9.73;;;3.53;;
8319;SDS011;4197;42.130;24.746;2023-03-31T09:37:13;6.93;;;2.90;;
8319;SDS011;4197;42.130;24.746;2023-03-31T09:39:41;7.85;;;3.15;;
8319;SDS011;4197;42.130;24.746;2023-03-31T09:42:10;14.45;;;4.15;;
8319;SDS011;4197;42.130;24.746;2023-03-31T09:44:42;9.38;;;3.55;;
8319;SDS011;4197;42.130;24.746;2023-03-31T09:47:13;6.70;;;3.25;;
8319;SDS011;4197;42.130;24.746;2023-03-31T09:49:48;4.97;;;3.17;;
8319;SDS011;4197;42.130;24.746;2023-03-31T09:52:23;7.57;;;3.05;;
8319;SDS011;4197;42.130;24.746;2023-03-31T09:54:57;11.57;;;3.78;;
8319;SDS011;4197;42.130;24.746;2023-03-31T09:57:28;12.35;;;4.28;;
8319;SDS011;4197;42.130;24.746;2023-03-31T10:00:05;6.45;;;2.97;;
8319;SDS011;4197;42.130;24.746;2023-03-31T10:02:42;13.20;;;3.63;;
8319;SDS011;4197;42.130;24.746;2023-03-31T10:05:25;14.98;;;3.92;;
8319;SDS011;4197;42.130;24.746;2023-03-31T10:08:11;5.40;;;3.50;;
8319;SDS011;4197;42.130;24.746;2023-03-31T10:10:53;8.52;;;3.70;;
8319;SDS011;4197;42.130;24.746;2023-03-31T10:13:23;6.53;;;4.35;;
8319;SDS011;4197;42.130;24.746;2023-03-31T10:16:02;10.85;;;4.13;;
8319;SDS011;4197;42.130;24.746;2023-03-31T10:18:34;7.25;;;4.80;;
8319;SDS011;4197;42.130;24.746;2023-03-31T10:21:04;9.23;;;4.45;;
8319;SDS011;4197;42.130;24.746;2023-03-31T10:23:34;8.70;;;3.85;;
8319;SDS011;4197;42.130;24.746;2023-03-31T10:26:03;10.35;;;4.35;;
8319;SDS011;4197;42.130;24.746;2023-03-31T10:28:32;6.95;;;3.75;;
8319;SDS011;4197;42.130;24.746;2023-03-31T10:31:04;8.80;;;4.50;;
8319;SDS011;4197;42.130;24.746;2023-03-31T10:33:37;7.75;;;4.93;;
8319;SDS011;4197;42.130;24.746;2023-03-31T10:36:14;8.55;;;4.47;;
8319;SDS011;4197;42.130;24.746;2023-03-31T10:38:47;12.10;;;4.70;;
8319;SDS011;4197;42.130;24.746;2023-03-31T10:41:18;9.88;;;4.68;;
8319;SDS011;4197;42.130;24.746;2023-03-31T10:43:49;12.73;;;4.60;;
8319;SDS011;4197;42.130;24.746;2023-03-31T10:46:20;10.18;;;4.13;;
8319;SDS011;4197;42.130;24.746;2023-03-31T10:49:13;11.20;;;4.55;;
8319;SDS011;4197;42.130;24.746;2023-03-31T10:51:51;8.77;;;3.92;;
8319;SDS011;4197;42.130;24.746;2023-03-31T10:54:21;6.75;;;4.18;;
8319;SDS011;4197;42.130;24.746;2023-03-31T10:56:50;6.82;;;4.10;;
8319;SDS011;4197;42.130;24.746;2023-03-31T11:02:27;7.40;;;4.53;;
8319;SDS011;4197;42.130;24.746;2023-03-31T11:05:13;11.15;;;4.43;;
8319;SDS011;4197;42.130;24.746;2023-03-31T11:07:47;10.25;;;4.30;;
8319;SDS011;4197;42.130;24.746;2023-03-31T11:10:30;5.88;;;4.00;;
8319;SDS011;4197;42.130;24.746;2023-03-31T11:13:06;9.40;;;4.15;;
8319;SDS011;4197;42.130;24.746;2023-03-31T11:15:45;10.32;;;4.25;;
8319;SDS011;4197;42.130;24.746;2023-03-31T11:18:34;10.73;;;4.32;;
8319;SDS011;4197;42.130;24.746;2023-03-31T11:21:11;11.25;;;4.63;;
8319;SDS011;4197;42.130;24.746;2023-03-31T11:23:49;9.40;;;4.45;;
8319;SDS011;4197;42.130;24.746;2023-03-31T11:26:26;8.18;;;4.38;;
8319;SDS011;4197;42.130;24.746;2023-03-31T11:29:07;8.57;;;4.43;;
8319;SDS011;4197;42.130;24.746;2023-03-31T11:31:47;6.32;;;4.30;;
8319;SDS011;4197;42.130;24.746;2023-03-31T11:34:27;11.60;;;3.90;;
8319;SDS011;4197;42.130;24.746;2023-03-31T11:37:21;18.23;;;4.75;;
8319;SDS011;4197;42.130;24.746;2023-03-31T11:40:08;7.35;;;4.43;;
8319;SDS011;4197;42.130;24.746;2023-03-31T11:42:49;7.68;;;4.65;;
8319;SDS011;4197;42.130;24.746;2023-03-31T11:45:22;11.18;;;4.38;;
8319;SDS011;4197;42.130;24.746;2023-03-31T11:47:55;7.82;;;3.60;;
8319;SDS011;4197;42.130;24.746;2023-03-31T11:50:33;10.02;;;4.38;;
8319;SDS011;4197;42.130;24.746;2023-03-31T11:53:06;8.18;;;4.18;;
8319;SDS011;4197;42.130;24.746;2023-03-31T11:55:42;6.95;;;3.50;;
8319;SDS011;4197;42.130;24.746;2023-03-31T11:58:14;5.20;;;3.42;;
8319;SDS011;4197;42.130;24.746;2023-03-31T12:00:46;13.27;;;3.67;;
8319;SDS011;4197;42.130;24.746;2023-03-31T12:03:18;11.20;;;3.92;;
8319;SDS011;4197;42.130;24.746;2023-03-31T12:05:55;12.50;;;3.97;;
8319;SDS011;4197;42.130;24.746;2023-03-31T12:08:30;6.72;;;3.47;;
8319;SDS011;4197;42.130;24.746;2023-03-31T12:11:04;7.13;;;3.58;;
8319;SDS011;4197;42.130;24.746;2023-03-31T12:13:54;7.28;;;3.60;;
8319;SDS011;4197;42.130;24.746;2023-03-31T12:16:31;6.28;;;3.65;;
8319;SDS011;4197;42.130;24.746;2023-03-31T12:19:07;7.22;;;3.72;;
8319;SDS011;4197;42.130;24.746;2023-03-31T12:21:46;4.75;;;3.35;;
8319;SDS011;4197;42.130;24.746;2023-03-31T12:24:18;7.00;;;3.40;;
8319;SDS011;4197;42.130;24.746;2023-03-31T12:26:49;11.48;;;3.45;;
8319;SDS011;4197;42.130;24.746;2023-03-31T12:29:27;5.30;;;2.75;;
8319;SDS011;4197;42.130;24.746;2023-03-31T12:32:00;7.05;;;3.08;;
8319;SDS011;4197;42.130;24.746;2023-03-31T12:34:32;14.63;;;3.20;;
8319;SDS011;4197;42.130;24.746;2023-03-31T12:37:19;6.20;;;2.90;;
8319;SDS011;4197;42.130;24.746;2023-03-31T12:40:16;7.25;;;3.30;;
8319;SDS011;4197;42.130;24.746;2023-03-31T12:42:59;7.25;;;2.60;;
8319;SDS011;4197;42.130;24.746;2023-03-31T12:45:38;6.70;;;2.30;;
8319;SDS011;4197;42.130;24.746;2023-03-31T12:48:19;5.32;;;2.45;;
8319;SDS011;4197;42.130;24.746;2023-03-31T12:51:07;6.65;;;1.38;;
8319;SDS011;4197;42.130;24.746;2023-03-31T12:53:48;10.48;;;1.70;;
8319;SDS011;4197;42.130;24.746;2023-03-31T12:56:28;5.03;;;1.70;;
8319;SDS011;4197;42.130;24.746;2023-03-31T12:59:42;7.18;;;2.72;;
8319;SDS011;4197;42.130;24.746;2023-03-31T13:02:20;8.40;;;2.33;;
8319;SDS011;4197;42.130;24.746;2023-03-31T13:04:50;9.35;;;2.17;;
8319;SDS011;4197;42.130;24.746;2023-03-31T13:10:24;4.10;;;2.00;;
8319;SDS011;4197;42.130;24.746;2023-03-31T13:12:57;6.50;;;2.35;;
8319;SDS011;4197;42.130;24.746;2023-03-31T13:15:28;5.95;;;2.10;;
8319;SDS011;4197;42.130;24.746;2023-03-31T13:18:01;5.28;;;1.80;;
8319;SDS011;4197;42.130;24.746;2023-03-31T13:20:34;8.27;;;2.17;;
8319;SDS011;4197;42.130;24.746;2023-03-31T13:23:05;4.38;;;2.03;;
8319;SDS011;4197;42.130;24.746;2023-03-31T13:25:46;3.42;;;1.70;;
8319;SDS011;4197;42.130;24.746;2023-03-31T13:28:17;7.13;;;2.15;;
8319;SDS011;4197;42.130;24.746;2023-03-31T13:31:09;3.08;;;1.83;;
8319;SDS011;4197;42.130;24.746;2023-03-31T13:33:41;5.57;;;2.30;;
8319;SDS011;4197;42.130;24.746;2023-03-31T13:36:18;6.18;;;2.10;;
8319;SDS011;4197;42.130;24.746;2023-03-31T13:39:01;6.10;;;1.60;;
8319;SDS011;4197;42.130;24.746;2023-03-31T13:41:46;4.15;;;1.70;;
8319;SDS011;4197;42.130;24.746;2023-03-31T13:44:36;3.30;;;2.03;;
8319;SDS011;4197;42.130;24.746;2023-03-31T13:50:19;5.47;;;2.25;;
8319;SDS011;4197;42.130;24.746;2023-03-31T13:53:06;3.72;;;1.98;;
8319;SDS011;4197;42.130;24.746;2023-03-31T13:55:54;5.75;;;2.67;;
8319;SDS011;4197;42.130;24.746;2023-03-31T13:58:47;7.28;;;2.50;;
8319;SDS011;4197;42.130;24.746;2023-03-31T14:01:35;8.02;;;2.50;;
8319;SDS011;4197;42.130;24.746;2023-03-31T14:04:45;4.75;;;2.30;;
8319;SDS011;4197;42.130;24.746;2023-03-31T14:07:30;5.15;;;2.13;;
8319;SDS011;4197;42.130;24.746;2023-03-31T14:10:02;4.20;;;2.40;;
8319;SDS011;4197;42.130;24.746;2023-03-31T14:12:33;10.52;;;2.38;;
8319;SDS011;4197;42.130;24.746;2023-03-31T14:15:16;2.78;;;2.45;;
8319;SDS011;4197;42.130;24.746;2023-03-31T14:17:46;13.07;;;4.63;;
8319;SDS011;4197;42.130;24.746;2023-03-31T14:20:21;5.63;;;2.88;;
8319;SDS011;4197;42.130;24.746;2023-03-31T14:23:02;7.47;;;2.83;;
8319;SDS011;4197;42.130;24.746;2023-03-31T14:25:41;7.40;;;2.83;;
8319;SDS011;4197;42.130;24.746;2023-03-31T14:28:20;7.20;;;2.78;;
8319;SDS011;4197;42.130;24.746;2023-03-31T14:31:10;9.27;;;2.72;;
8319;SDS011;4197;42.130;24.746;2023-03-31T14:33:49;4.13;;;2.50;;
8319;SDS011;4197;42.130;24.746;2023-03-31T14:36:34;4.55;;;3.40;;
8319;SDS011;4197;42.130;24.746;2023-03-31T14:39:12;4.13;;;2.45;;
8319;SDS011;4197;42.130;24.746;2023-03-31T14:41:46;5.07;;;3.13;;
8319;SDS011;4197;42.130;24.746;2023-03-31T14:44:20;6.43;;;2.97;;
8319;SDS011;4197;42.130;24.746;2023-03-31T14:46:51;10.60;;;4.53;;
8319;SDS011;4197;42.130;24.746;2023-03-31T14:49:20;6.18;;;2.40;;
8319;SDS011;4197;42.130;24.746;2023-03-31T14:51:52;7.22;;;2.90;;
8319;SDS011;4197;42.130;24.746;2023-03-31T14:54:22;5.68;;;2.67;;
8319;SDS011;4197;42.130;24.746;2023-03-31T14:56:54;3.53;;;2.10;;
8319;SDS011;4197;42.130;24.746;2023-03-31T14:59:27;5.63;;;2.33;;
8319;SDS011;4197;42.130;24.746;2023-03-31T15:02:01;4.57;;;2.13;;
8319;SDS011;4197;42.130;24.746;2023-03-31T15:04:34;8.25;;;1.98;;
8319;SDS011;4197;42.130;24.746;2023-03-31T15:07:10;4.47;;;2.67;;
8319;SDS011;4197;42.130;24.746;2023-03-31T15:09:40;5.70;;;2.72;;
8319;SDS011;4197;42.130;24.746;2023-03-31T15:12:15;4.55;;;2.50;;
8319;SDS011;4197;42.130;24.746;2023-03-31T15:14:47;4.75;;;2.47;;
8319;SDS011;4197;42.130;24.746;2023-03-31T15:17:20;6.25;;;2.20;;
8319;SDS011;4197;42.130;24.746;2023-03-31T15:19:55;5.35;;;2.35;;
8319;SDS011;4197;42.130;24.746;2023-03-31T15:22:25;4.97;;;2.13;;
8319;SDS011;4197;42.130;24.746;2023-03-31T15:24:56;3.58;;;2.20;;
8319;SDS011;4197;42.130;24.746;2023-03-31T15:27:31;6.70;;;2.80;;
8319;SDS011;4197;42.130;24.746;2023-03-31T15:30:04;4.40;;;2.15;;
8319;SDS011;4197;42.130;24.746;2023-03-31T15:32:39;7.20;;;2.42;;
8319;SDS011;4197;42.130;24.746;2023-03-31T15:35:10;5.75;;;2.20;;
8319;SDS011;4197;42.130;24.746;2023-03-31T15:37:48;5.03;;;2.30;;
8319;SDS011;4197;42.130;24.746;2023-03-31T15:40:20;4.20;;;2.30;;
8319;SDS011;4197;42.130;24.746;2023-03-31T15:42:52;4.13;;;1.98;;
8319;SDS011;4197;42.130;24.746;2023-03-31T15:45:44;7.28;;;2.65;;
8319;SDS011;4197;42.130;24.746;2023-03-31T15:48:18;7.60;;;2.20;;
8319;SDS011;4197;42.130;24.746;2023-03-31T15:50:49;6.70;;;2.90;;